Aérodrome :
LOGIN :

S'inscrire | Disclaimer

   EN    FR    IT 

 










Légende :    VFR   VFR Marginal   IFR   IFR Intensif   IFR Très Intensif
Visi : 
Plafond : 
>= 8 km
>= 3000ft
5 à 8 km
1000 à 3000 ft
1500m à 5 km
500 à 1000 ft
800 à 1500m
200 à 500 ft
< 800m
< 200 ft
Symboles :   Orages  Brouillard  Fortes neiges  Fortes précipitations  Vent > 20 kt
SIGMETs :   Divers  Orages  Givrage  Turbulence  Onde Orograph.  Cendres Volcan.







- Altitude de l'aérodrome : 538 ft
- Code IATA : TNF
- Voir les cartes d'approche


LFPN - Toussus Le Noble

DERNIER METAR :
  • 250630Z AUTO 33005KT 9999 -DZ OVC043 05/03 Q1012 TEMPO BKN014

METARs EXPIRÉS :
  • 250600Z AUTO 36005KT 330V030 9999 OVC033 05/03 Q1011 TEMPO BKN014
  • 250530Z AUTO 36010KT 9999 -DZ SCT020 OVC029 05/02 Q1011 TEMPO BKN014
  • 250500Z AUTO 36013KT 9999 OVC021 06/04 Q1011
  • 250430Z AUTO 35011KT 320V020 7000 -RADZ FEW011 OVC018 07/05 Q1011
  • 250400Z AUTO 36005KT 330V030 9999 FEW017 BKN024 OVC030 08/06 Q1010

TAF TAF LFPN
Valide du 25 à 06h jusqu'au 25 à 15h UTC


250500Z 2506/2515 35006KT 9999 BKN020
TEMPO 2506/2510 -RA BKN014
BECMG 2511/2513 CAVOK
ATIS : +33 1 39 56 54 70
Pas de NOTAMs connus pour ce terrain.



MET'MAP, la Météo Aéronautique d'un coup d'oeil ! - Copyright ORBIFLY Décembre 2007 - Disclaimer

ORBIFLY MET'MAP TEAM :

Programmation & Développement : Alexandra Zaïnal
Conception & Développement : Baudouin d'Aumeries
Co-Programmation & Développement : Marc-Olivier Méhu
Soutien technique & logistique : Manuel Goepfert

Contact : metmap@orbifly.com




SOURCES & CREDITS :

   NOAA